Hiawatha, West Virginia
Current Conditions -  °F | °C
As of 6:52 PM on Friday 28 Nov 2014 (Local Time) from KBLF Reporting Station
Broken Clouds Broken Clouds  
Wind Chill: 23°   Ceiling: 10000
Heat Index: 28°   Visibility: 10mi
Dew Point: 17°   Wind: 5mph
Humidity: 63%   Direction: 220°SW
Pressure: 30.19"   Gusts: NA
Location:  37.44°N, 81.24°W
Report Text: KBLF 282352Z AUTO 22004KT 10SM BKN100 M02/M08 A3019 RMK AO2 SLP249 T10221083 11017 21039 58000 $
Loading
Personal Weather Stations






























Interactive Weather Map New forecast layout! Learn more

10-Day Weather Forecast

Advertisements
Track Severe Weather on mobile